Time;durP1;ratioP1;P1;durP2;ratioP2;P2;SDS_P1;SDS_P2;PMS_P1;PMS_P2;Temp;Humidity;BMP_temperature;BMP_pressure;BME280_temperature;BME280_humidity;BME280_pressure;Samples;Min_cycle;Max_cycle;Signal;HPM_P1;HPM_P2
2021/12/06 00:00:23;;;;;;;64.00;8.00;;;;;;;;;;5071456;28;20231;-64
2021/12/06 00:02:50;;;;;;;66.55;7.65;;;;;;;;;;5071508;28;20205;-64
2021/12/06 00:05:17;;;;;;;66.93;8.75;;;;;;;;;;5071181;28;20205;-64
2021/12/06 00:07:45;;;;;;;63.55;7.30;;;;;;;;;;5071273;28;20315;-64
2021/12/06 00:10:14;;;;;;;66.05;8.93;;;;;;;;;;5071156;28;20236;-64
2021/12/06 00:12:43;;;;;;;68.53;9.80;;;;;;;;;;5070846;28;20296;-64
2021/12/06 00:15:12;;;;;;;66.93;9.90;;;;;;;;;;5071205;28;20208;-64
2021/12/06 00:17:39;;;;;;;65.95;9.05;;;;;;;;;;5070990;28;20608;-64
2021/12/06 00:20:07;;;;;;;67.82;8.70;;;;;;;;;;5071000;28;20724;-64
2021/12/06 00:22:35;;;;;;;67.15;9.80;;;;;;;;;;5068829;28;20537;-64
2021/12/06 00:25:02;;;;;;;65.97;10.25;;;;;;;;;;5071385;28;20292;-65
2021/12/06 00:27:29;;;;;;;67.53;9.85;;;;;;;;;;5070920;28;20669;-64
2021/12/06 00:29:56;;;;;;;67.38;10.50;;;;;;;;;;5071093;28;20225;-64
2021/12/06 00:32:25;;;;;;;67.45;9.88;;;;;;;;;;5070510;28;20299;-63
2021/12/06 00:34:52;;;;;;;68.43;11.20;;;;;;;;;;5071408;28;20220;-64
2021/12/06 00:37:23;;;;;;;65.80;9.57;;;;;;;;;;5073034;28;20295;-64
2021/12/06 00:39:55;;;;;;;70.38;10.90;;;;;;;;;;5075089;28;20232;-64
2021/12/06 00:42:24;;;;;;;68.65;10.98;;;;;;;;;;5074830;28;20263;-65
2021/12/06 00:44:51;;;;;;;67.80;10.20;;;;;;;;;;5074698;28;20205;-64
2021/12/06 00:47:18;;;;;;;65.53;10.10;;;;;;;;;;5074528;28;20229;-64
2021/12/06 00:49:47;;;;;;;67.30;10.45;;;;;;;;;;5075626;28;20224;-64
2021/12/06 00:52:14;;;;;;;71.80;10.77;;;;;;;;;;5076126;28;20209;-65
2021/12/06 00:54:42;;;;;;;67.28;10.25;;;;;;;;;;5073240;28;20205;-64
2021/12/06 00:57:10;;;;;;;68.47;11.15;;;;;;;;;;5076547;28;20231;-63
2021/12/06 00:59:38;;;;;;;70.03;10.55;;;;;;;;;;5075878;28;20235;-64
2021/12/06 01:02:06;;;;;;;66.53;10.63;;;;;;;;;;5075775;28;20227;-64
2021/12/06 01:04:34;;;;;;;68.10;10.73;;;;;;;;;;5074600;28;20299;-64
2021/12/06 01:07:03;;;;;;;66.97;9.93;;;;;;;;;;5074471;28;20229;-64
2021/12/06 01:09:30;;;;;;;68.88;10.60;;;;;;;;;;5074204;28;20225;-64
2021/12/06 01:11:57;;;;;;;66.85;10.02;;;;;;;;;;5074068;28;20556;-64
2021/12/06 01:14:24;;;;;;;70.45;13.05;;;;;;;;;;5073758;28;20209;-63
2021/12/06 01:16:51;;;;;;;69.05;10.57;;;;;;;;;;5074232;28;20208;-64
2021/12/06 01:19:19;;;;;;;71.55;10.80;;;;;;;;;;5073986;28;20232;-65
2021/12/06 01:21:51;;;;;;;67.43;11.75;;;;;;;;;;5074131;28;20201;-64
2021/12/06 01:24:27;;;;;;;67.90;11.15;;;;;;;;;;5074104;28;20623;-64
2021/12/06 01:27:11;;;;;;;68.20;11.32;;;;;;;;;;5073275;28;20224;-64
2021/12/06 01:29:58;;;;;;;68.45;10.93;;;;;;;;;;5074117;28;20230;-65
2021/12/06 01:32:49;;;;;;;66.55;10.60;;;;;;;;;;5073938;28;20241;-65
2021/12/06 01:40:43;;;;;;;66.90;10.82;;;;;;;;;;5073863;28;20208;-64
2021/12/06 01:43:11;;;;;;;69.03;11.48;;;;;;;;;;5073619;28;20211;-65
2021/12/06 01:45:38;;;;;;;72.82;12.18;;;;;;;;;;5073546;28;20669;-64
2021/12/06 01:48:05;;;;;;;72.22;12.27;;;;;;;;;;5072861;28;20232;-65
2021/12/06 01:50:32;;;;;;;68.88;11.13;;;;;;;;;;5073533;28;20248;-65
2021/12/06 01:53:01;;;;;;;69.38;12.38;;;;;;;;;;5073291;28;20212;-64
2021/12/06 01:55:29;;;;;;;68.50;11.15;;;;;;;;;;5073292;28;20209;-65
2021/12/06 01:57:58;;;;;;;69.93;10.95;;;;;;;;;;5070173;28;20206;-64
2021/12/06 02:00:27;;;;;;;70.47;9.30;;;;;;;;;;5073309;28;20720;-65
2021/12/06 02:02:54;;;;;;;66.85;10.45;;;;;;;;;;5073156;28;20207;-64
2021/12/06 02:05:22;;;;;;;68.50;10.35;;;;;;;;;;5073160;28;20205;-65
2021/12/06 02:07:49;;;;;;;66.63;10.25;;;;;;;;;;5072957;28;20220;-64
2021/12/06 02:10:16;;;;;;;69.78;10.63;;;;;;;;;;5072847;28;20324;-65
2021/12/06 02:12:45;;;;;;;72.63;10.38;;;;;;;;;;5073051;28;20205;-65
2021/12/06 02:15:28;;;;;;;68.07;10.73;;;;;;;;;;5073169;28;20294;-64
2021/12/06 02:18:03;;;;;;;65.43;9.50;;;;;;;;;;5072802;28;20201;-64
2021/12/06 02:20:36;;;;;;;69.70;10.25;;;;;;;;;;5072935;28;20228;-65
2021/12/06 02:23:04;;;;;;;67.70;10.55;;;;;;;;;;5073157;28;20205;-64
2021/12/06 02:25:32;;;;;;;67.13;10.32;;;;;;;;;;5072892;28;20201;-64
2021/12/06 02:27:59;;;;;;;69.68;10.88;;;;;;;;;;5072628;28;20649;-65
2021/12/06 02:30:26;;;;;;;68.60;10.93;;;;;;;;;;5069937;28;20489;-64
2021/12/06 02:32:54;;;;;;;71.07;12.15;;;;;;;;;;5072675;28;20629;-65
2021/12/06 02:35:22;;;;;;;65.55;10.30;;;;;;;;;;5071874;28;20292;-64
2021/12/06 02:37:51;;;;;;;66.38;10.95;;;;;;;;;;5071657;28;20295;-64
2021/12/06 02:40:22;;;;;;;65.28;9.65;;;;;;;;;;5072438;28;20228;-64
2021/12/06 02:42:49;;;;;;;69.88;11.40;;;;;;;;;;5070564;28;20239;-64
2021/12/06 02:45:18;;;;;;;72.57;11.43;;;;;;;;;;5072521;28;20589;-64
2021/12/06 02:47:46;;;;;;;69.28;11.43;;;;;;;;;;5072322;28;20225;-64
2021/12/06 02:50:14;;;;;;;67.80;10.73;;;;;;;;;;5072458;28;20251;-65
2021/12/06 02:52:41;;;;;;;67.13;10.82;;;;;;;;;;5072260;28;20233;-64
2021/12/06 02:55:24;;;;;;;68.60;10.52;;;;;;;;;;5071750;28;20209;-64
2021/12/06 02:57:57;;;;;;;67.63;10.52;;;;;;;;;;5072280;28;20197;-65
2021/12/06 03:00:24;;;;;;;67.82;11.02;;;;;;;;;;5071658;28;20235;-64
2021/12/06 03:02:52;;;;;;;68.00;11.13;;;;;;;;;;5069800;28;20201;-64
2021/12/06 03:05:19;;;;;;;64.00;8.48;;;;;;;;;;5072141;28;20296;-64
2021/12/06 03:07:51;;;;;;;66.53;9.48;;;;;;;;;;5071200;28;20311;-64
2021/12/06 03:10:19;;;;;;;69.90;10.90;;;;;;;;;;5071889;28;20315;-64
2021/12/06 03:12:46;;;;;;;66.03;9.98;;;;;;;;;;5071996;28;20799;-64
2021/12/06 03:15:16;;;;;;;66.15;10.13;;;;;;;;;;5071858;28;20555;-65
2021/12/06 03:17:45;;;;;;;64.50;8.85;;;;;;;;;;5071793;28;20200;-64
2021/12/06 03:20:13;;;;;;;67.95;10.20;;;;;;;;;;5072265;28;20225;-64
2021/12/06 03:22:41;;;;;;;66.05;9.82;;;;;;;;;;5071732;28;20278;-64
2021/12/06 03:25:08;;;;;;;66.85;10.45;;;;;;;;;;5072067;28;20206;-64
2021/12/06 03:27:36;;;;;;;69.15;10.27;;;;;;;;;;5071666;28;20216;-64
2021/12/06 03:30:03;;;;;;;67.53;10.60;;;;;;;;;;5071820;28;20224;-64
2021/12/06 03:32:32;;;;;;;66.22;9.85;;;;;;;;;;5071848;28;20296;-64
2021/12/06 03:34:59;;;;;;;65.57;9.48;;;;;;;;;;5068684;28;20303;-64
2021/12/06 03:37:26;;;;;;;68.40;11.27;;;;;;;;;;5071502;28;20313;-64
2021/12/06 03:39:53;;;;;;;66.05;10.20;;;;;;;;;;5071470;28;20225;-64
2021/12/06 03:42:22;;;;;;;70.10;10.82;;;;;;;;;;5071509;28;20205;-65
2021/12/06 03:44:49;;;;;;;66.38;9.70;;;;;;;;;;5071516;28;20204;-64
2021/12/06 03:47:17;;;;;;;69.53;10.60;;;;;;;;;;5071225;28;20311;-65
2021/12/06 03:49:46;;;;;;;66.10;10.55;;;;;;;;;;5071458;28;20229;-64
2021/12/06 03:52:14;;;;;;;66.55;9.82;;;;;;;;;;5071724;28;20648;-64
2021/12/06 03:54:42;;;;;;;67.30;10.50;;;;;;;;;;5071350;28;20212;-65
2021/12/06 03:57:09;;;;;;;67.40;10.18;;;;;;;;;;5071266;28;20576;-64
2021/12/06 03:59:36;;;;;;;64.78;9.27;;;;;;;;;;5072010;28;20235;-64
2021/12/06 04:02:04;;;;;;;67.38;10.20;;;;;;;;;;5071274;28;20204;-64
2021/12/06 04:04:31;;;;;;;65.10;9.38;;;;;;;;;;5071670;28;20211;-64
2021/12/06 04:07:00;;;;;;;65.65;9.95;;;;;;;;;;5071245;28;20211;-64
2021/12/06 04:09:27;;;;;;;67.72;10.23;;;;;;;;;;5071355;28;20316;-64
2021/12/06 04:11:54;;;;;;;66.15;10.05;;;;;;;;;;5072864;28;20220;-65
2021/12/06 04:14:21;;;;;;;65.32;9.55;;;;;;;;;;5075239;28;20201;-63
2021/12/06 04:16:48;;;;;;;66.85;10.00;;;;;;;;;;5074826;28;20212;-64
2021/12/06 04:19:16;;;;;;;69.70;10.27;;;;;;;;;;5075180;28;20225;-64
2021/12/06 04:21:43;;;;;;;64.78;9.55;;;;;;;;;;5075487;28;20201;-64
2021/12/06 04:24:12;;;;;;;64.05;9.13;;;;;;;;;;5075361;28;20209;-64
2021/12/06 04:26:40;;;;;;;67.82;10.02;;;;;;;;;;5075170;28;20247;-64
2021/12/06 04:29:08;;;;;;;65.88;9.18;;;;;;;;;;5074131;28;20256;-64
2021/12/06 04:31:37;;;;;;;67.78;9.43;;;;;;;;;;5074712;28;20292;-64
2021/12/06 04:34:04;;;;;;;66.20;9.63;;;;;;;;;;5074956;28;20296;-64
2021/12/06 04:36:31;;;;;;;66.90;10.52;;;;;;;;;;5074344;28;20238;-65
2021/12/06 04:38:58;;;;;;;66.78;10.90;;;;;;;;;;5074562;28;20228;-64
2021/12/06 04:41:27;;;;;;;67.60;10.63;;;;;;;;;;5074608;28;20201;-64
2021/12/06 04:43:54;;;;;;;69.43;11.15;;;;;;;;;;5072560;28;20577;-64
2021/12/06 04:46:21;;;;;;;69.45;11.73;;;;;;;;;;5074905;28;20296;-64
2021/12/06 04:48:48;;;;;;;68.95;13.23;;;;;;;;;;5074502;28;20224;-64
2021/12/06 04:51:15;;;;;;;74.22;13.02;;;;;;;;;;5074815;28;20584;-64
2021/12/06 04:53:43;;;;;;;70.75;12.98;;;;;;;;;;5074572;28;20576;-64
2021/12/06 04:56:14;;;;;;;74.55;14.27;;;;;;;;;;5073931;28;20205;-64
2021/12/06 04:58:48;;;;;;;68.32;12.32;;;;;;;;;;5074335;28;20257;-64
2021/12/06 05:01:17;;;;;;;69.15;11.55;;;;;;;;;;5074637;28;20303;-64
2021/12/06 05:03:46;;;;;;;73.20;14.57;;;;;;;;;;5074627;28;20216;-64
2021/12/06 05:06:17;;;;;;;70.80;13.23;;;;;;;;;;5074756;28;20296;-64
2021/12/06 05:08:45;;;;;;;70.53;12.57;;;;;;;;;;5073886;28;20225;-64
2021/12/06 05:11:12;;;;;;;67.53;11.18;;;;;;;;;;5074562;28;20635;-65
2021/12/06 05:13:41;;;;;;;68.35;10.00;;;;;;;;;;5074326;28;20295;-64
2021/12/06 05:16:09;;;;;;;67.88;10.00;;;;;;;;;;5071502;28;20213;-64
2021/12/06 05:18:36;;;;;;;67.63;9.18;;;;;;;;;;5073834;28;20228;-66
2021/12/06 05:21:04;;;;;;;66.68;8.93;;;;;;;;;;5074237;28;20675;-64
2021/12/06 05:23:31;;;;;;;64.50;9.40;;;;;;;;;;5073505;28;20288;-64
2021/12/06 05:25:59;;;;;;;65.35;9.60;;;;;;;;;;5073922;28;20201;-64
2021/12/06 05:28:30;;;;;;;65.45;9.23;;;;;;;;;;5073884;28;20227;-64
2021/12/06 05:30:58;;;;;;;66.68;9.13;;;;;;;;;;5074146;28;20221;-64
2021/12/06 05:33:31;;;;;;;67.57;10.50;;;;;;;;;;5073977;28;20539;-62
2021/12/06 05:35:58;;;;;;;70.18;9.95;;;;;;;;;;5073853;28;20551;-63
2021/12/06 05:38:26;;;;;;;66.10;9.93;;;;;;;;;;5073483;28;20292;-63
2021/12/06 05:40:53;;;;;;;67.30;11.43;;;;;;;;;;5073857;28;20699;-64
2021/12/06 05:43:21;;;;;;;70.32;11.25;;;;;;;;;;5074009;28;20843;-63
2021/12/06 05:45:49;;;;;;;68.53;11.38;;;;;;;;;;5073369;28;20697;-64
2021/12/06 05:48:16;;;;;;;69.20;11.80;;;;;;;;;;5070555;28;20270;-64
2021/12/06 05:50:46;;;;;;;74.20;11.85;;;;;;;;;;5073869;28;20291;-64
2021/12/06 05:53:13;;;;;;;68.57;11.05;;;;;;;;;;5073736;28;20299;-63
2021/12/06 05:55:40;;;;;;;70.32;13.20;;;;;;;;;;5073398;28;20211;-64
2021/12/06 05:58:09;;;;;;;69.82;13.00;;;;;;;;;;5072461;28;20201;-64
2021/12/06 06:00:36;;;;;;;73.65;13.38;;;;;;;;;;5073293;28;20336;-64
2021/12/06 06:03:05;;;;;;;69.30;12.80;;;;;;;;;;5073592;28;20219;-64
2021/12/06 06:05:33;;;;;;;73.13;12.75;;;;;;;;;;5073444;28;20205;-64
2021/12/06 06:08:02;;;;;;;71.00;12.60;;;;;;;;;;5073087;28;20655;-64
2021/12/06 06:10:30;;;;;;;69.90;12.07;;;;;;;;;;5073072;28;20231;-64
2021/12/06 06:12:57;;;;;;;70.47;13.52;;;;;;;;;;5073643;28;20251;-64
2021/12/06 06:15:24;;;;;;;71.82;12.70;;;;;;;;;;5072858;28;20676;-64
2021/12/06 06:17:52;;;;;;;73.15;14.65;;;;;;;;;;5072419;28;20243;-64
2021/12/06 06:20:20;;;;;;;74.38;14.05;;;;;;;;;;5070836;28;20225;-64
2021/12/06 06:22:47;;;;;;;75.20;14.82;;;;;;;;;;5073187;28;20640;-64
2021/12/06 06:25:16;;;;;;;72.93;13.75;;;;;;;;;;5072803;28;20205;-64
2021/12/06 06:27:43;;;;;;;78.00;17.05;;;;;;;;;;5072515;28;20618;-64
2021/12/06 06:30:12;;;;;;;76.18;14.88;;;;;;;;;;5072929;28;20227;-64
2021/12/06 06:32:39;;;;;;;74.10;15.50;;;;;;;;;;5072751;28;20208;-64
2021/12/06 06:35:07;;;;;;;71.75;14.60;;;;;;;;;;5072661;28;20209;-64
2021/12/06 06:37:34;;;;;;;75.13;15.25;;;;;;;;;;5071925;28;20212;-64
2021/12/06 06:40:01;;;;;;;76.20;16.55;;;;;;;;;;5072332;28;20227;-64
2021/12/06 06:42:30;;;;;;;80.07;17.52;;;;;;;;;;5072475;28;20246;-64
2021/12/06 06:44:58;;;;;;;84.60;20.92;;;;;;;;;;5072111;28;20215;-64
2021/12/06 06:47:25;;;;;;;83.45;20.15;;;;;;;;;;5071762;28;20291;-64
2021/12/06 06:49:54;;;;;;;80.32;18.30;;;;;;;;;;5072309;28;20235;-64
2021/12/06 06:52:21;;;;;;;75.55;16.95;;;;;;;;;;5069705;28;20205;-64
2021/12/06 06:54:48;;;;;;;77.03;16.67;;;;;;;;;;5072028;28;20209;-64
2021/12/06 06:57:16;;;;;;;77.78;17.05;;;;;;;;;;5071868;28;20244;-64
2021/12/06 06:59:45;;;;;;;76.90;15.82;;;;;;;;;;5072075;28;20224;-64
2021/12/06 07:02:13;;;;;;;75.25;15.07;;;;;;;;;;5072281;28;20201;-64
2021/12/06 07:04:40;;;;;;;70.97;14.25;;;;;;;;;;5072266;28;20590;-64
2021/12/06 07:07:07;;;;;;;76.53;15.40;;;;;;;;;;5071815;28;20576;-64
2021/12/06 07:09:34;;;;;;;79.53;16.55;;;;;;;;;;5071682;28;20232;-64
2021/12/06 07:12:01;;;;;;;77.20;15.25;;;;;;;;;;5072035;28;20219;-64
2021/12/06 07:14:29;;;;;;;78.13;15.82;;;;;;;;;;5072279;28;20296;-64
2021/12/06 07:16:57;;;;;;;74.93;14.18;;;;;;;;;;5071635;28;20211;-64
2021/12/06 07:19:24;;;;;;;72.25;14.25;;;;;;;;;;5071635;28;20221;-63
2021/12/06 07:21:51;;;;;;;72.95;13.82;;;;;;;;;;5071722;28;20677;-64
2021/12/06 07:24:18;;;;;;;73.85;15.65;;;;;;;;;;5069390;28;20212;-64
2021/12/06 07:26:46;;;;;;;74.60;14.82;;;;;;;;;;5071898;28;20271;-64
2021/12/06 07:29:13;;;;;;;75.20;15.60;;;;;;;;;;5071795;28;20315;-64
2021/12/06 07:31:40;;;;;;;75.40;14.18;;;;;;;;;;5071887;28;20676;-64
2021/12/06 07:34:08;;;;;;;71.85;14.93;;;;;;;;;;5071784;28;20211;-64
2021/12/06 07:36:35;;;;;;;78.03;14.90;;;;;;;;;;5071264;28;20307;-64
2021/12/06 07:39:03;;;;;;;75.90;15.60;;;;;;;;;;5070851;28;20217;-63
2021/12/06 07:41:30;;;;;;;76.80;17.33;;;;;;;;;;5071729;28;20208;-64
2021/12/06 07:43:58;;;;;;;79.47;15.20;;;;;;;;;;5071741;28;20207;-64
2021/12/06 07:46:25;;;;;;;80.22;17.73;;;;;;;;;;5071248;28;20594;-63
2021/12/06 07:48:53;;;;;;;79.10;17.02;;;;;;;;;;5071066;28;20231;-64
2021/12/06 07:51:22;;;;;;;79.30;17.60;;;;;;;;;;5071479;28;20213;-64
2021/12/06 07:53:50;;;;;;;78.13;16.38;;;;;;;;;;5070416;28;20296;-63
2021/12/06 07:56:17;;;;;;;82.05;16.77;;;;;;;;;;5071140;28;20211;-64
2021/12/06 07:58:44;;;;;;;76.82;16.13;;;;;;;;;;5070800;28;20312;-64
2021/12/06 08:01:12;;;;;;;79.20;16.63;;;;;;;;;;5071305;28;20209;-64
2021/12/06 08:03:41;;;;;;;79.35;16.80;;;;;;;;;;5071422;28;20228;-64
2021/12/06 08:06:08;;;;;;;82.68;18.77;;;;;;;;;;5071464;28;20209;-64
2021/12/06 08:08:38;;;;;;;82.97;17.55;;;;;;;;;;5071014;28;20229;-63
2021/12/06 08:11:08;;;;;;;79.70;16.13;;;;;;;;;;5071542;28;20644;-63
2021/12/06 08:13:36;;;;;;;81.60;16.08;;;;;;;;;;5071520;28;20205;-63
2021/12/06 08:16:05;;;;;;;78.72;17.10;;;;;;;;;;5071006;28;20577;-63
2021/12/06 08:18:32;;;;;;;76.85;16.00;;;;;;;;;;5070548;28;20225;-63
2021/12/06 08:21:00;;;;;;;78.22;16.58;;;;;;;;;;5071375;28;20209;-63
2021/12/06 08:23:28;;;;;;;78.60;16.77;;;;;;;;;;5071408;28;20738;-63
2021/12/06 08:25:56;;;;;;;81.40;18.15;;;;;;;;;;5068763;28;20205;-63
2021/12/06 08:28:24;;;;;;;77.15;15.90;;;;;;;;;;5070753;28;20209;-63
2021/12/06 08:30:52;;;;;;;77.65;16.98;;;;;;;;;;5071058;28;20300;-63
2021/12/06 08:33:20;;;;;;;87.32;17.83;;;;;;;;;;5071176;28;20201;-63
2021/12/06 08:35:52;;;;;;;76.57;16.15;;;;;;;;;;5071072;28;20208;-63
2021/12/06 08:38:19;;;;;;;85.82;16.02;;;;;;;;;;5070251;28;20213;-63
2021/12/06 08:40:47;;;;;;;77.97;16.00;;;;;;;;;;5071037;28;20696;-63
2021/12/06 08:43:17;;;;;;;77.72;15.70;;;;;;;;;;5070950;28;20227;-63
2021/12/06 08:45:45;;;;;;;79.45;15.73;;;;;;;;;;5071352;28;20212;-63
2021/12/06 08:48:12;;;;;;;77.55;16.77;;;;;;;;;;5070683;28;20205;-63
2021/12/06 08:50:39;;;;;;;84.07;17.52;;;;;;;;;;5071055;28;20225;-63
2021/12/06 08:53:06;;;;;;;81.93;18.45;;;;;;;;;;5071157;28;20205;-63
2021/12/06 08:55:34;;;;;;;80.65;17.92;;;;;;;;;;5070893;28;20215;-63
2021/12/06 08:58:01;;;;;;;82.50;17.95;;;;;;;;;;5068680;28;20215;-63
2021/12/06 09:00:32;;;;;;;77.47;16.98;;;;;;;;;;5074555;28;20635;-63
2021/12/06 09:02:59;;;;;;;75.88;15.63;;;;;;;;;;5074736;28;20296;-63
2021/12/06 09:05:28;;;;;;;75.70;16.83;;;;;;;;;;5074408;28;20209;-63
2021/12/06 09:07:56;;;;;;;79.40;17.08;;;;;;;;;;5074095;28;20753;-63
2021/12/06 09:10:23;;;;;;;79.75;16.10;;;;;;;;;;5074208;28;20225;-63
2021/12/06 09:12:50;;;;;;;76.30;15.93;;;;;;;;;;5074696;28;20209;-63
2021/12/06 09:15:18;;;;;;;74.97;14.55;;;;;;;;;;5074521;28;20205;-63
2021/12/06 09:17:47;;;;;;;76.25;14.52;;;;;;;;;;5073811;28;20216;-63
2021/12/06 09:20:15;;;;;;;73.80;14.45;;;;;;;;;;5074122;28;20225;-63
2021/12/06 09:22:43;;;;;;;76.03;15.05;;;;;;;;;;5074194;28;20205;-63
2021/12/06 09:25:11;;;;;;;72.20;13.70;;;;;;;;;;5074003;28;20636;-64
2021/12/06 09:27:39;;;;;;;76.57;13.95;;;;;;;;;;5074144;28;20291;-63
2021/12/06 09:30:06;;;;;;;73.75;14.15;;;;;;;;;;5071730;28;20229;-63
2021/12/06 09:32:34;;;;;;;80.53;14.18;;;;;;;;;;5074030;28;20736;-63
2021/12/06 09:35:03;;;;;;;73.63;14.10;;;;;;;;;;5073874;28;20209;-63
2021/12/06 09:37:31;;;;;;;78.32;15.57;;;;;;;;;;5073217;28;20212;-63
2021/12/06 09:39:58;;;;;;;79.85;14.15;;;;;;;;;;5073428;28;20709;-63
2021/12/06 09:42:32;;;;;;;74.95;14.02;;;;;;;;;;5073713;28;20308;-63
2021/12/06 09:44:59;;;;;;;75.72;14.77;;;;;;;;;;5073872;28;20212;-63
2021/12/06 09:47:27;;;;;;;72.47;12.73;;;;;;;;;;5073412;28;20574;-63
2021/12/06 09:49:55;;;;;;;78.10;15.30;;;;;;;;;;5073327;28;20225;-63
2021/12/06 09:52:23;;;;;;;75.53;14.63;;;;;;;;;;5073713;28;20533;-64
2021/12/06 09:54:50;;;;;;;74.13;14.55;;;;;;;;;;5073701;28;20291;-63
2021/12/06 09:57:17;;;;;;;79.97;15.07;;;;;;;;;;5073184;28;20215;-63
2021/12/06 09:59:47;;;;;;;74.82;14.30;;;;;;;;;;5072750;28;20225;-63
2021/12/06 10:02:17;;;;;;;76.50;14.30;;;;;;;;;;5071254;28;20288;-64
2021/12/06 10:04:48;;;;;;;76.85;13.70;;;;;;;;;;5073289;28;20332;-63
2021/12/06 10:07:15;;;;;;;75.82;14.10;;;;;;;;;;5073381;28;20263;-63
2021/12/06 10:09:45;;;;;;;75.53;12.63;;;;;;;;;;5072919;28;20311;-63
2021/12/06 10:12:15;;;;;;;81.47;14.10;;;;;;;;;;5073334;28;20282;-63
2021/12/06 10:14:42;;;;;;;77.18;13.95;;;;;;;;;;5073241;28;20292;-63
2021/12/06 10:17:09;;;;;;;76.50;13.20;;;;;;;;;;5072718;28;20219;-63
2021/12/06 10:19:36;;;;;;;81.95;15.02;;;;;;;;;;5072661;28;20659;-63
2021/12/06 10:22:04;;;;;;;76.68;13.90;;;;;;;;;;5073057;28;20287;-63
2021/12/06 10:24:32;;;;;;;73.40;13.60;;;;;;;;;;5073068;28;20205;-63
2021/12/06 10:27:08;;;;;;;77.85;14.40;;;;;;;;;;5072943;28;20419;-62
2021/12/06 10:29:38;;;;;;;75.93;13.30;;;;;;;;;;5072465;28;20277;-63
2021/12/06 10:32:11;;;;;;;78.25;12.55;;;;;;;;;;5070222;28;20201;-63
2021/12/06 10:34:38;;;;;;;77.00;13.40;;;;;;;;;;5072722;28;20201;-63
2021/12/06 10:37:05;;;;;;;78.35;14.70;;;;;;;;;;5072391;28;20223;-62
2021/12/06 10:39:36;;;;;;;78.60;14.30;;;;;;;;;;5072027;28;20788;-63
2021/12/06 10:42:03;;;;;;;78.43;14.80;;;;;;;;;;5072361;28;20205;-63
2021/12/06 10:44:32;;;;;;;73.35;13.40;;;;;;;;;;5072599;28;20291;-63
2021/12/06 10:46:59;;;;;;;75.85;12.73;;;;;;;;;;5072629;28;20588;-64
2021/12/06 10:49:27;;;;;;;72.93;12.98;;;;;;;;;;5072029;28;20294;-63
2021/12/06 10:51:55;;;;;;;71.30;11.80;;;;;;;;;;5072459;28;20749;-64
2021/12/06 10:54:34;;;;;;;79.03;13.88;;;;;;;;;;5072297;28;20205;-63
2021/12/06 10:57:03;;;;;;;76.20;13.15;;;;;;;;;;5072454;28;20205;-64
2021/12/06 10:59:33;;;;;;;76.30;12.95;;;;;;;;;;5071669;28;20231;-64
2021/12/06 11:02:05;;;;;;;75.20;13.30;;;;;;;;;;5072200;28;20299;-63
2021/12/06 11:04:33;;;;;;;69.82;10.98;;;;;;;;;;5069630;28;20201;-64
2021/12/06 11:07:05;;;;;;;73.55;13.02;;;;;;;;;;5071938;28;20205;-64
2021/12/06 11:09:33;;;;;;;75.00;11.65;;;;;;;;;;5071712;28;20229;-63
2021/12/06 11:12:01;;;;;;;74.03;11.90;;;;;;;;;;5072114;28;20693;-64
2021/12/06 11:14:30;;;;;;;70.40;10.23;;;;;;;;;;5072490;28;20580;-63
2021/12/06 11:17:00;;;;;;;67.97;10.63;;;;;;;;;;5071876;28;20217;-64
2021/12/06 11:19:28;;;;;;;77.05;12.60;;;;;;;;;;5070808;28;20247;-63
2021/12/06 11:21:56;;;;;;;69.93;10.93;;;;;;;;;;5071681;28;20212;-63
2021/12/06 11:24:25;;;;;;;70.88;11.40;;;;;;;;;;5072102;28;20666;-64
2021/12/06 11:26:58;;;;;;;74.72;12.20;;;;;;;;;;5071968;28;20205;-63
2021/12/06 11:29:28;;;;;;;72.88;12.75;;;;;;;;;;5071343;28;20265;-63
2021/12/06 11:31:57;;;;;;;72.30;10.52;;;;;;;;;;5071811;28;20292;-63
2021/12/06 11:34:28;;;;;;;70.57;10.50;;;;;;;;;;5071771;28;20202;-66
2021/12/06 11:36:55;;;;;;;71.13;11.27;;;;;;;;;;5069174;28;20212;-66
2021/12/06 11:39:24;;;;;;;70.15;10.40;;;;;;;;;;5071146;28;20225;-64
2021/12/06 11:41:53;;;;;;;67.68;9.73;;;;;;;;;;5071439;28;20297;-63
2021/12/06 11:44:22;;;;;;;66.43;8.43;;;;;;;;;;5071699;28;20205;-64
2021/12/06 11:46:55;;;;;;;68.60;9.65;;;;;;;;;;5071720;28;20197;-63
2021/12/06 11:49:23;;;;;;;68.35;9.45;;;;;;;;;;5071478;28;20226;-63
2021/12/06 11:51:52;;;;;;;68.00;9.17;;;;;;;;;;5071742;28;20294;-64
2021/12/06 11:54:19;;;;;;;68.18;10.02;;;;;;;;;;5071710;28;20444;-64
2021/12/06 11:56:48;;;;;;;67.55;9.65;;;;;;;;;;5071340;28;20202;-63
2021/12/06 11:59:17;;;;;;;75.28;11.70;;;;;;;;;;5070786;28;20279;-63
2021/12/06 12:01:45;;;;;;;72.03;10.50;;;;;;;;;;5071342;28;20206;-64
2021/12/06 12:04:14;;;;;;;75.18;12.50;;;;;;;;;;5071699;28;20208;-63
2021/12/06 12:06:42;;;;;;;70.37;10.63;;;;;;;;;;5069068;28;20682;-64
2021/12/06 12:09:11;;;;;;;71.35;10.60;;;;;;;;;;5070957;28;20907;-63
2021/12/06 12:11:59;;;;;;;67.53;9.25;;;;;;;;;;5071144;28;20225;-64
2021/12/06 12:14:27;;;;;;;72.60;11.50;;;;;;;;;;5071689;28;20642;-64
2021/12/06 12:16:55;;;;;;;68.20;9.85;;;;;;;;;;5071292;28;20453;-64
2021/12/06 12:19:22;;;;;;;72.13;9.90;;;;;;;;;;5070846;28;20342;-64
2021/12/06 12:21:49;;;;;;;68.70;10.87;;;;;;;;;;5071043;28;20448;-64
2021/12/06 12:24:18;;;;;;;67.30;9.40;;;;;;;;;;5071286;28;20543;-63
2021/12/06 12:26:55;;;;;;;67.65;10.00;;;;;;;;;;5071754;28;20458;-64
2021/12/06 12:29:26;;;;;;;68.63;9.53;;;;;;;;;;5070927;28;20321;-64
2021/12/06 12:31:54;;;;;;;71.77;10.37;;;;;;;;;;5072908;28;20572;-64
2021/12/06 12:34:22;;;;;;;66.57;9.60;;;;;;;;;;5075064;28;20450;-64
2021/12/06 12:36:49;;;;;;;68.00;10.27;;;;;;;;;;5074503;28;20468;-64
2021/12/06 12:39:20;;;;;;;70.60;10.40;;;;;;;;;;5071756;28;20474;-64
2021/12/06 12:41:51;;;;;;;69.20;9.67;;;;;;;;;;5075088;28;20485;-64
2021/12/06 12:44:20;;;;;;;69.10;10.10;;;;;;;;;;5074912;28;20533;-64
2021/12/06 12:46:48;;;;;;;68.00;10.00;;;;;;;;;;5074894;28;20457;-64
2021/12/06 12:49:17;;;;;;;71.30;11.90;;;;;;;;;;5074225;28;20466;-64
2021/12/06 12:51:48;;;;;;;72.17;11.87;;;;;;;;;;5074965;28;20479;-64
2021/12/06 12:54:18;;;;;;;67.70;9.10;;;;;;;;;;5074836;28;20450;-64
2021/12/06 12:56:49;;;;;;;66.23;9.00;;;;;;;;;;5074730;28;20450;-64
2021/12/06 12:59:37;;;;;;;71.27;11.03;;;;;;;;;;5074082;28;20501;-64
2021/12/06 13:02:17;;;;;;;71.83;10.47;;;;;;;;;;5069853;28;20549;-64
2021/12/06 13:05:05;;;;;;;67.20;8.90;;;;;;;;;;5074640;28;20457;-64
2021/12/06 13:07:33;;;;;;;68.80;9.60;;;;;;;;;;5074346;28;20822;-64
2021/12/06 13:10:20;;;;;;;67.47;9.80;;;;;;;;;;5073954;28;20477;-64
2021/12/06 13:12:57;;;;;;;68.27;9.57;;;;;;;;;;5074208;28;20453;-64
2021/12/06 13:15:34;;;;;;;71.33;10.27;;;;;;;;;;5074308;28;20479;-64
2021/12/06 13:18:04;;;;;;;71.37;11.27;;;;;;;;;;5073938;28;20437;-64
2021/12/06 13:20:36;;;;;;;74.73;11.70;;;;;;;;;;5073736;28;20775;-64
2021/12/06 13:23:09;;;;;;;72.40;12.60;;;;;;;;;;5074088;28;20449;-64
2021/12/06 13:25:37;;;;;;;71.80;12.40;;;;;;;;;;5074084;28;20451;-64
2021/12/06 13:28:07;;;;;;;72.57;11.80;;;;;;;;;;5073923;28;20528;-64
2021/12/06 13:30:41;;;;;;;75.87;13.10;;;;;;;;;;5073876;28;20599;-64
2021/12/06 13:33:10;;;;;;;77.30;12.80;;;;;;;;;;5074051;28;20482;-64
2021/12/06 13:35:47;;;;;;;73.80;12.70;;;;;;;;;;5074112;28;20444;-64
2021/12/06 13:38:29;;;;;;;72.10;11.63;;;;;;;;;;5073600;28;20453;-64
2021/12/06 13:41:08;;;;;;;71.63;12.60;;;;;;;;;;5071527;28;20456;-64
2021/12/06 13:43:38;;;;;;;73.65;11.63;;;;;;;;;;5070448;28;20205;-65
2021/12/06 13:46:07;;;;;;;74.30;13.15;;;;;;;;;;5074116;28;20673;-65
2021/12/06 13:48:37;;;;;;;71.00;12.40;;;;;;;;;;5073438;28;20226;-64
2021/12/06 13:51:19;;;;;;;72.95;13.05;;;;;;;;;;5073442;28;20320;-64
2021/12/06 13:53:53;;;;;;;73.57;13.05;;;;;;;;;;5073407;28;20223;-64
2021/12/06 13:56:36;;;;;;;71.88;12.13;;;;;;;;;;5073878;28;20445;-65
2021/12/06 13:59:05;;;;;;;74.60;13.30;;;;;;;;;;5073151;28;20256;-65
2021/12/06 14:01:34;;;;;;;76.68;13.32;;;;;;;;;;5073023;28;20205;-64
2021/12/06 14:04:03;;;;;;;78.35;14.45;;;;;;;;;;5073240;28;20209;-64
2021/12/06 14:06:41;;;;;;;78.88;15.25;;;;;;;;;;5073648;28;20205;-65
2021/12/06 14:09:08;;;;;;;75.87;14.83;;;;;;;;;;5073072;28;20228;-65
2021/12/06 14:11:36;;;;;;;70.90;12.20;;;;;;;;;;5073328;28;20487;-65
2021/12/06 14:14:10;;;;;;;74.22;11.45;;;;;;;;;;5070529;28;20947;-65
2021/12/06 14:16:37;;;;;;;70.40;11.03;;;;;;;;;;5073034;28;20211;-64
2021/12/06 14:19:04;;;;;;;74.30;12.00;;;;;;;;;;5072798;28;20466;-64
2021/12/06 14:21:36;;;;;;;71.90;11.30;;;;;;;;;;5072628;28;20534;-64
2021/12/06 14:24:03;;;;;;;69.00;11.30;;;;;;;;;;5072722;28;20745;-65
2021/12/06 14:26:33;;;;;;;69.10;10.57;;;;;;;;;;5072896;28;20443;-65
2021/12/06 14:29:00;;;;;;;71.67;10.90;;;;;;;;;;5072252;28;20470;-64
2021/12/06 14:31:30;;;;;;;76.30;11.97;;;;;;;;;;5072982;28;20806;-65
2021/12/06 14:34:03;;;;;;;72.43;11.70;;;;;;;;;;5072989;28;20475;-64